sensor_id;sensor_type;location;lat;lon;timestamp;temperature;humidity
60868;DHT22;46702;48.370;10.794;2022-09-13T00:00:38;11.70;99.90
60868;DHT22;46702;48.370;10.794;2022-09-13T00:03:04;11.70;99.90
60868;DHT22;46702;48.370;10.794;2022-09-13T00:05:31;11.60;99.90
60868;DHT22;46702;48.370;10.794;2022-09-13T00:07:57;11.40;99.90
60868;DHT22;46702;48.370;10.794;2022-09-13T00:10:23;11.20;99.90
60868;DHT22;46702;48.370;10.794;2022-09-13T00:12:50;11.30;99.90
60868;DHT22;46702;48.370;10.794;2022-09-13T00:15:16;11.20;99.90
60868;DHT22;46702;48.370;10.794;2022-09-13T00:17:42;11.30;99.90
60868;DHT22;46702;48.370;10.794;2022-09-13T00:20:07;11.30;99.90
60868;DHT22;46702;48.370;10.794;2022-09-13T00:22:34;11.20;99.90
60868;DHT22;46702;48.370;10.794;2022-09-13T00:25:03;11.20;99.90
60868;DHT22;46702;48.370;10.794;2022-09-13T00:27:31;11.20;99.90
60868;DHT22;46702;48.370;10.794;2022-09-13T00:29:57;11.30;99.90
60868;DHT22;46702;48.370;10.794;2022-09-13T00:32:22;11.20;99.90
60868;DHT22;46702;48.370;10.794;2022-09-13T00:34:48;11.20;99.90
60868;DHT22;46702;48.370;10.794;2022-09-13T00:37:14;10.80;99.90
60868;DHT22;46702;48.370;10.794;2022-09-13T00:39:40;10.50;99.90
60868;DHT22;46702;48.370;10.794;2022-09-13T00:42:12;10.40;99.90
60868;DHT22;46702;48.370;10.794;2022-09-13T00:45:16;10.50;99.90
60868;DHT22;46702;48.370;10.794;2022-09-13T00:47:57;10.60;99.90
60868;DHT22;46702;48.370;10.794;2022-09-13T00:50:30;10.70;99.90
60868;DHT22;46702;48.370;10.794;2022-09-13T00:55:50;10.90;99.90
60868;DHT22;46702;48.370;10.794;2022-09-13T00:58:21;10.90;99.90
60868;DHT22;46702;48.370;10.794;2022-09-13T01:00:49;10.90;99.90
60868;DHT22;46702;48.370;10.794;2022-09-13T01:03:16;10.90;99.90
60868;DHT22;46702;48.370;10.794;2022-09-13T01:05:46;10.90;99.90
60868;DHT22;46702;48.370;10.794;2022-09-13T01:08:14;11.00;99.90
60868;DHT22;46702;48.370;10.794;2022-09-13T01:10:48;11.00;99.90
60868;DHT22;46702;48.370;10.794;2022-09-13T01:13:24;11.10;99.90
60868;DHT22;46702;48.370;10.794;2022-09-13T01:15:51;11.00;99.90
60868;DHT22;46702;48.370;10.794;2022-09-13T01:18:17;10.80;99.90
60868;DHT22;46702;48.370;10.794;2022-09-13T01:24:03;10.80;99.90
60868;DHT22;46702;48.370;10.794;2022-09-13T01:42:58;10.20;99.90
60868;DHT22;46702;48.370;10.794;2022-09-13T01:48:15;10.40;99.90
60868;DHT22;46702;48.370;10.794;2022-09-13T01:50:45;10.50;99.90
60868;DHT22;46702;48.370;10.794;2022-09-13T01:56:25;10.60;99.90
60868;DHT22;46702;48.370;10.794;2022-09-13T01:59:02;10.50;99.90
60868;DHT22;46702;48.370;10.794;2022-09-13T02:01:33;10.50;99.90
60868;DHT22;46702;48.370;10.794;2022-09-13T02:04:13;10.60;99.90
60868;DHT22;46702;48.370;10.794;2022-09-13T02:06:47;10.60;99.90
60868;DHT22;46702;48.370;10.794;2022-09-13T02:09:20;10.70;99.90
60868;DHT22;46702;48.370;10.794;2022-09-13T02:11:53;10.60;99.90
60868;DHT22;46702;48.370;10.794;2022-09-13T02:14:27;10.40;99.90
60868;DHT22;46702;48.370;10.794;2022-09-13T02:17:17;10.50;99.90
60868;DHT22;46702;48.370;10.794;2022-09-13T02:20:02;10.40;99.90
60868;DHT22;46702;48.370;10.794;2022-09-13T02:22:34;10.40;99.90
60868;DHT22;46702;48.370;10.794;2022-09-13T02:25:06;10.50;99.90
60868;DHT22;46702;48.370;10.794;2022-09-13T02:27:33;10.40;99.90
60868;DHT22;46702;48.370;10.794;2022-09-13T02:30:10;10.40;99.90
60868;DHT22;46702;48.370;10.794;2022-09-13T02:32:40;10.50;99.90
60868;DHT22;46702;48.370;10.794;2022-09-13T02:35:18;10.50;99.90
60868;DHT22;46702;48.370;10.794;2022-09-13T02:37:50;10.50;99.90
60868;DHT22;46702;48.370;10.794;2022-09-13T02:40:21;10.20;99.90
60868;DHT22;46702;48.370;10.794;2022-09-13T02:42:56;9.90;99.90
60868;DHT22;46702;48.370;10.794;2022-09-13T02:45:30;9.70;99.90
60868;DHT22;46702;48.370;10.794;2022-09-13T02:47:59;9.80;99.90
60868;DHT22;46702;48.370;10.794;2022-09-13T02:53:30;9.80;99.90
60868;DHT22;46702;48.370;10.794;2022-09-13T02:56:29;9.70;99.90
60868;DHT22;46702;48.370;10.794;2022-09-13T02:59:01;9.80;99.90
60868;DHT22;46702;48.370;10.794;2022-09-13T03:01:29;9.80;99.90
60868;DHT22;46702;48.370;10.794;2022-09-13T03:03:55;9.70;99.90
60868;DHT22;46702;48.370;10.794;2022-09-13T03:06:22;9.60;99.90
60868;DHT22;46702;48.370;10.794;2022-09-13T03:08:48;9.70;99.90
60868;DHT22;46702;48.370;10.794;2022-09-13T03:14:39;9.70;99.90
60868;DHT22;46702;48.370;10.794;2022-09-13T03:29:09;9.50;99.90
60868;DHT22;46702;48.370;10.794;2022-09-13T03:31:34;9.50;99.90
60868;DHT22;46702;48.370;10.794;2022-09-13T03:39:15;9.20;99.90
60868;DHT22;46702;48.370;10.794;2022-09-13T03:41:47;9.30;99.90
60868;DHT22;46702;48.370;10.794;2022-09-13T03:44:17;9.30;99.90
60868;DHT22;46702;48.370;10.794;2022-09-13T03:46:46;9.30;99.90
60868;DHT22;46702;48.370;10.794;2022-09-13T03:49:17;9.30;99.90
60868;DHT22;46702;48.370;10.794;2022-09-13T03:51:47;9.00;99.90
60868;DHT22;46702;48.370;10.794;2022-09-13T03:54:23;9.00;99.90
60868;DHT22;46702;48.370;10.794;2022-09-13T03:57:08;9.10;99.90
60868;DHT22;46702;48.370;10.794;2022-09-13T03:59:35;9.20;99.90
60868;DHT22;46702;48.370;10.794;2022-09-13T04:02:05;9.30;99.90
60868;DHT22;46702;48.370;10.794;2022-09-13T04:04:32;9.30;99.90
60868;DHT22;46702;48.370;10.794;2022-09-13T04:06:58;9.30;99.90
60868;DHT22;46702;48.370;10.794;2022-09-13T04:09:28;9.40;99.90
60868;DHT22;46702;48.370;10.794;2022-09-13T04:11:53;9.50;99.90
60868;DHT22;46702;48.370;10.794;2022-09-13T04:14:20;9.60;99.90
60868;DHT22;46702;48.370;10.794;2022-09-13T04:16:46;9.60;99.90
60868;DHT22;46702;48.370;10.794;2022-09-13T04:19:12;9.60;99.90
60868;DHT22;46702;48.370;10.794;2022-09-13T04:21:38;9.70;99.90
60868;DHT22;46702;48.370;10.794;2022-09-13T04:24:04;9.70;99.90
60868;DHT22;46702;48.370;10.794;2022-09-13T04:26:30;9.80;99.90
60868;DHT22;46702;48.370;10.794;2022-09-13T04:28:55;9.80;99.90
60868;DHT22;46702;48.370;10.794;2022-09-13T04:31:21;9.80;99.90
60868;DHT22;46702;48.370;10.794;2022-09-13T04:33:48;9.70;99.90
60868;DHT22;46702;48.370;10.794;2022-09-13T04:36:14;9.60;99.90
60868;DHT22;46702;48.370;10.794;2022-09-13T04:38:41;9.60;99.90
60868;DHT22;46702;48.370;10.794;2022-09-13T04:41:06;9.60;99.90
60868;DHT22;46702;48.370;10.794;2022-09-13T04:43:32;9.50;99.90
60868;DHT22;46702;48.370;10.794;2022-09-13T04:46:01;9.50;99.90
60868;DHT22;46702;48.370;10.794;2022-09-13T04:48:26;9.40;99.90
60868;DHT22;46702;48.370;10.794;2022-09-13T04:50:52;9.30;99.90
60868;DHT22;46702;48.370;10.794;2022-09-13T04:53:18;9.20;99.90
60868;DHT22;46702;48.370;10.794;2022-09-13T04:55:43;9.10;99.90
60868;DHT22;46702;48.370;10.794;2022-09-13T04:58:09;8.90;99.90
60868;DHT22;46702;48.370;10.794;2022-09-13T05:00:36;8.80;99.90
60868;DHT22;46702;48.370;10.794;2022-09-13T05:03:02;8.80;99.90
60868;DHT22;46702;48.370;10.794;2022-09-13T05:05:28;9.00;99.90
60868;DHT22;46702;48.370;10.794;2022-09-13T05:07:55;9.10;99.90
60868;DHT22;46702;48.370;10.794;2022-09-13T05:10:21;9.20;99.90
60868;DHT22;46702;48.370;10.794;2022-09-13T05:12:46;9.20;99.90
60868;DHT22;46702;48.370;10.794;2022-09-13T05:15:12;9.20;99.90
60868;DHT22;46702;48.370;10.794;2022-09-13T05:17:38;9.20;99.90
60868;DHT22;46702;48.370;10.794;2022-09-13T05:20:04;9.10;99.90
60868;DHT22;46702;48.370;10.794;2022-09-13T05:22:30;9.10;99.90
60868;DHT22;46702;48.370;10.794;2022-09-13T05:24:56;9.10;99.90
60868;DHT22;46702;48.370;10.794;2022-09-13T05:27:22;9.20;99.90
60868;DHT22;46702;48.370;10.794;2022-09-13T05:29:47;9.30;99.90
60868;DHT22;46702;48.370;10.794;2022-09-13T05:32:13;9.20;99.90
60868;DHT22;46702;48.370;10.794;2022-09-13T05:34:39;9.10;99.90
60868;DHT22;46702;48.370;10.794;2022-09-13T05:37:04;9.00;99.90
60868;DHT22;46702;48.370;10.794;2022-09-13T05:39:30;9.10;99.90
60868;DHT22;46702;48.370;10.794;2022-09-13T05:41:56;9.10;99.90
60868;DHT22;46702;48.370;10.794;2022-09-13T05:44:22;9.30;99.90
60868;DHT22;46702;48.370;10.794;2022-09-13T05:46:48;9.40;99.90
60868;DHT22;46702;48.370;10.794;2022-09-13T05:49:13;9.40;99.90
60868;DHT22;46702;48.370;10.794;2022-09-13T05:51:39;9.50;99.90
60868;DHT22;46702;48.370;10.794;2022-09-13T05:54:05;9.50;99.90
60868;DHT22;46702;48.370;10.794;2022-09-13T05:56:31;9.50;99.90
60868;DHT22;46702;48.370;10.794;2022-09-13T05:58:57;9.50;99.90
60868;DHT22;46702;48.370;10.794;2022-09-13T06:01:25;9.60;99.90
60868;DHT22;46702;48.370;10.794;2022-09-13T06:03:54;9.70;99.90
60868;DHT22;46702;48.370;10.794;2022-09-13T06:06:21;9.80;99.90
60868;DHT22;46702;48.370;10.794;2022-09-13T06:08:50;10.00;99.90
60868;DHT22;46702;48.370;10.794;2022-09-13T06:11:16;10.10;99.90
60868;DHT22;46702;48.370;10.794;2022-09-13T06:13:41;10.20;99.90
60868;DHT22;46702;48.370;10.794;2022-09-13T06:16:12;10.30;99.90
60868;DHT22;46702;48.370;10.794;2022-09-13T06:18:38;10.50;99.90
60868;DHT22;46702;48.370;10.794;2022-09-13T06:21:10;10.60;99.90
60868;DHT22;46702;48.370;10.794;2022-09-13T06:23:37;10.70;99.90
60868;DHT22;46702;48.370;10.794;2022-09-13T06:26:05;10.90;99.90
60868;DHT22;46702;48.370;10.794;2022-09-13T06:28:32;11.00;99.90
60868;DHT22;46702;48.370;10.794;2022-09-13T06:31:02;11.20;99.90
60868;DHT22;46702;48.370;10.794;2022-09-13T06:33:28;11.40;99.90
60868;DHT22;46702;48.370;10.794;2022-09-13T06:35:54;11.40;99.90
60868;DHT22;46702;48.370;10.794;2022-09-13T06:38:20;11.50;99.90
60868;DHT22;46702;48.370;10.794;2022-09-13T06:40:45;11.60;99.90
60868;DHT22;46702;48.370;10.794;2022-09-13T06:43:11;11.80;99.90
60868;DHT22;46702;48.370;10.794;2022-09-13T06:45:36;12.00;99.90
60868;DHT22;46702;48.370;10.794;2022-09-13T06:48:02;12.20;99.90
60868;DHT22;46702;48.370;10.794;2022-09-13T06:50:28;12.40;99.90
60868;DHT22;46702;48.370;10.794;2022-09-13T06:52:55;12.60;99.90
60868;DHT22;46702;48.370;10.794;2022-09-13T06:55:21;12.70;99.90
60868;DHT22;46702;48.370;10.794;2022-09-13T06:57:47;12.90;99.90
60868;DHT22;46702;48.370;10.794;2022-09-13T07:00:13;13.00;99.90
60868;DHT22;46702;48.370;10.794;2022-09-13T07:02:39;13.20;99.90
60868;DHT22;46702;48.370;10.794;2022-09-13T07:05:05;13.40;99.90
60868;DHT22;46702;48.370;10.794;2022-09-13T07:07:31;13.60;99.90
60868;DHT22;46702;48.370;10.794;2022-09-13T07:09:57;13.70;99.90
60868;DHT22;46702;48.370;10.794;2022-09-13T07:12:22;13.90;99.90
60868;DHT22;46702;48.370;10.794;2022-09-13T07:14:48;14.00;99.90
60868;DHT22;46702;48.370;10.794;2022-09-13T07:17:14;14.10;99.90
60868;DHT22;46702;48.370;10.794;2022-09-13T07:19:39;14.20;99.90
60868;DHT22;46702;48.370;10.794;2022-09-13T07:22:05;14.20;99.90
60868;DHT22;46702;48.370;10.794;2022-09-13T07:24:31;14.40;99.90
60868;DHT22;46702;48.370;10.794;2022-09-13T07:26:56;14.40;99.90
60868;DHT22;46702;48.370;10.794;2022-09-13T07:29:22;14.50;99.90
60868;DHT22;46702;48.370;10.794;2022-09-13T07:31:52;14.60;99.90
60868;DHT22;46702;48.370;10.794;2022-09-13T07:34:21;14.70;99.90
60868;DHT22;46702;48.370;10.794;2022-09-13T07:36:47;14.90;99.90
60868;DHT22;46702;48.370;10.794;2022-09-13T07:39:14;14.90;99.90
60868;DHT22;46702;48.370;10.794;2022-09-13T07:41:40;15.00;99.90
60868;DHT22;46702;48.370;10.794;2022-09-13T07:44:06;15.00;99.90
60868;DHT22;46702;48.370;10.794;2022-09-13T07:46:34;15.10;99.90
60868;DHT22;46702;48.370;10.794;2022-09-13T07:49:06;15.20;99.90
60868;DHT22;46702;48.370;10.794;2022-09-13T07:51:34;15.30;99.90
60868;DHT22;46702;48.370;10.794;2022-09-13T07:54:03;15.40;99.90
60868;DHT22;46702;48.370;10.794;2022-09-13T07:56:32;15.60;99.90
60868;DHT22;46702;48.370;10.794;2022-09-13T07:58:59;15.70;99.90
60868;DHT22;46702;48.370;10.794;2022-09-13T08:01:28;15.80;99.90
60868;DHT22;46702;48.370;10.794;2022-09-13T08:03:59;16.00;99.90
60868;DHT22;46702;48.370;10.794;2022-09-13T08:06:27;16.20;99.90
60868;DHT22;46702;48.370;10.794;2022-09-13T08:08:53;16.40;99.90
60868;DHT22;46702;48.370;10.794;2022-09-13T08:11:33;16.60;99.90
60868;DHT22;46702;48.370;10.794;2022-09-13T08:13:59;16.80;99.90
60868;DHT22;46702;48.370;10.794;2022-09-13T08:16:26;17.00;99.90
60868;DHT22;46702;48.370;10.794;2022-09-13T08:18:54;17.10;99.90
60868;DHT22;46702;48.370;10.794;2022-09-13T08:21:20;17.10;99.90
60868;DHT22;46702;48.370;10.794;2022-09-13T08:23:47;17.20;99.90
60868;DHT22;46702;48.370;10.794;2022-09-13T08:26:13;17.40;99.90
60868;DHT22;46702;48.370;10.794;2022-09-13T08:28:40;17.60;99.90
60868;DHT22;46702;48.370;10.794;2022-09-13T08:31:10;17.90;99.90
60868;DHT22;46702;48.370;10.794;2022-09-13T08:33:36;18.20;99.90
60868;DHT22;46702;48.370;10.794;2022-09-13T08:36:03;18.30;99.90
60868;DHT22;46702;48.370;10.794;2022-09-13T08:38:29;18.20;99.90
60868;DHT22;46702;48.370;10.794;2022-09-13T08:40:58;18.10;99.90
60868;DHT22;46702;48.370;10.794;2022-09-13T08:46:28;18.00;99.90
60868;DHT22;46702;48.370;10.794;2022-09-13T08:49:00;18.20;99.90
60868;DHT22;46702;48.370;10.794;2022-09-13T08:51:36;18.30;99.90
60868;DHT22;46702;48.370;10.794;2022-09-13T08:54:04;18.50;99.90
60868;DHT22;46702;48.370;10.794;2022-09-13T08:56:45;18.80;99.90
60868;DHT22;46702;48.370;10.794;2022-09-13T08:59:23;18.90;99.90
60868;DHT22;46702;48.370;10.794;2022-09-13T09:04:29;19.30;99.90
60868;DHT22;46702;48.370;10.794;2022-09-13T09:07:25;19.30;99.90
60868;DHT22;46702;48.370;10.794;2022-09-13T09:10:13;19.40;99.90
60868;DHT22;46702;48.370;10.794;2022-09-13T09:12:49;19.70;99.90
60868;DHT22;46702;48.370;10.794;2022-09-13T09:15:19;19.70;99.90
60868;DHT22;46702;48.370;10.794;2022-09-13T09:18:10;19.80;98.20
60868;DHT22;46702;48.370;10.794;2022-09-13T09:20:43;19.70;99.60
60868;DHT22;46702;48.370;10.794;2022-09-13T09:23:16;19.80;98.70
60868;DHT22;46702;48.370;10.794;2022-09-13T09:25:43;20.00;99.90
60868;DHT22;46702;48.370;10.794;2022-09-13T09:28:16;20.10;99.90
60868;DHT22;46702;48.370;10.794;2022-09-13T09:33:39;20.50;99.90
60868;DHT22;46702;48.370;10.794;2022-09-13T09:36:14;20.80;98.90
60868;DHT22;46702;48.370;10.794;2022-09-13T09:38:43;20.90;96.20
60868;DHT22;46702;48.370;10.794;2022-09-13T09:41:14;21.10;96.80
60868;DHT22;46702;48.370;10.794;2022-09-13T09:46:28;21.20;94.70
60868;DHT22;46702;48.370;10.794;2022-09-13T09:50:08;21.30;96.60
60868;DHT22;46702;48.370;10.794;2022-09-13T09:52:41;21.60;95.50
60868;DHT22;46702;48.370;10.794;2022-09-13T09:55:16;21.40;94.40
60868;DHT22;46702;48.370;10.794;2022-09-13T09:57:50;21.50;94.10
60868;DHT22;46702;48.370;10.794;2022-09-13T10:00:16;21.70;94.50
60868;DHT22;46702;48.370;10.794;2022-09-13T10:02:43;21.70;91.90
60868;DHT22;46702;48.370;10.794;2022-09-13T10:05:09;22.00;91.30
60868;DHT22;46702;48.370;10.794;2022-09-13T10:07:37;21.70;93.10
60868;DHT22;46702;48.370;10.794;2022-09-13T10:10:25;22.10;93.70
60868;DHT22;46702;48.370;10.794;2022-09-13T10:12:54;22.30;92.20
60868;DHT22;46702;48.370;10.794;2022-09-13T10:15:24;22.10;90.80
60868;DHT22;46702;48.370;10.794;2022-09-13T10:18:14;22.10;91.10
60868;DHT22;46702;48.370;10.794;2022-09-13T10:20:41;22.20;92.20
60868;DHT22;46702;48.370;10.794;2022-09-13T10:25:39;22.50;90.30
60868;DHT22;46702;48.370;10.794;2022-09-13T10:28:09;22.70;91.20
60868;DHT22;46702;48.370;10.794;2022-09-13T10:30:48;23.00;90.60
60868;DHT22;46702;48.370;10.794;2022-09-13T10:33:32;23.10;90.10
60868;DHT22;46702;48.370;10.794;2022-09-13T10:36:03;23.30;89.60
60868;DHT22;46702;48.370;10.794;2022-09-13T10:38:41;23.40;93.80
60868;DHT22;46702;48.370;10.794;2022-09-13T10:41:10;23.40;90.50
60868;DHT22;46702;48.370;10.794;2022-09-13T10:43:45;23.60;88.20
60868;DHT22;46702;48.370;10.794;2022-09-13T10:46:14;23.60;89.50
60868;DHT22;46702;48.370;10.794;2022-09-13T10:48:47;23.60;84.30
60868;DHT22;46702;48.370;10.794;2022-09-13T10:53:50;23.90;88.10
60868;DHT22;46702;48.370;10.794;2022-09-13T10:56:22;24.00;79.30
60868;DHT22;46702;48.370;10.794;2022-09-13T10:58:49;24.00;82.80
60868;DHT22;46702;48.370;10.794;2022-09-13T11:01:29;23.60;83.50
60868;DHT22;46702;48.370;10.794;2022-09-13T11:04:25;23.70;86.30
60868;DHT22;46702;48.370;10.794;2022-09-13T11:07:08;23.80;77.00
60868;DHT22;46702;48.370;10.794;2022-09-13T11:12:21;23.70;77.80
60868;DHT22;46702;48.370;10.794;2022-09-13T11:18:23;23.90;76.00
60868;DHT22;46702;48.370;10.794;2022-09-13T11:21:22;24.00;77.40
60868;DHT22;46702;48.370;10.794;2022-09-13T11:24:09;24.00;69.30
60868;DHT22;46702;48.370;10.794;2022-09-13T11:26:53;24.00;76.10
60868;DHT22;46702;48.370;10.794;2022-09-13T11:29:32;23.60;75.90
60868;DHT22;46702;48.370;10.794;2022-09-13T11:32:25;23.30;74.10
60868;DHT22;46702;48.370;10.794;2022-09-13T11:40:54;23.80;81.90
60868;DHT22;46702;48.370;10.794;2022-09-13T11:57:48;24.40;70.30
60868;DHT22;46702;48.370;10.794;2022-09-13T12:02:51;24.30;76.60
60868;DHT22;46702;48.370;10.794;2022-09-13T12:05:23;24.40;72.40
60868;DHT22;46702;48.370;10.794;2022-09-13T12:07:59;24.30;73.30
60868;DHT22;46702;48.370;10.794;2022-09-13T12:13:28;24.40;70.30
60868;DHT22;46702;48.370;10.794;2022-09-13T12:15:59;24.30;71.80
60868;DHT22;46702;48.370;10.794;2022-09-13T12:18:29;24.30;67.60
60868;DHT22;46702;48.370;10.794;2022-09-13T12:21:03;24.20;65.30
60868;DHT22;46702;48.370;10.794;2022-09-13T12:23:36;24.10;71.10
60868;DHT22;46702;48.370;10.794;2022-09-13T12:26:29;24.20;68.40
60868;DHT22;46702;48.370;10.794;2022-09-13T12:29:00;24.20;68.40
60868;DHT22;46702;48.370;10.794;2022-09-13T12:31:33;24.10;65.80
60868;DHT22;46702;48.370;10.794;2022-09-13T12:34:00;24.20;65.40
60868;DHT22;46702;48.370;10.794;2022-09-13T12:42:21;24.40;67.00
60868;DHT22;46702;48.370;10.794;2022-09-13T12:45:05;24.40;67.30
60868;DHT22;46702;48.370;10.794;2022-09-13T12:50:17;24.40;63.90
60868;DHT22;46702;48.370;10.794;2022-09-13T13:03:31;24.70;63.20
60868;DHT22;46702;48.370;10.794;2022-09-13T13:06:24;24.80;65.00
60868;DHT22;46702;48.370;10.794;2022-09-13T13:08:55;24.90;62.00
60868;DHT22;46702;48.370;10.794;2022-09-13T13:11:28;24.90;63.40
60868;DHT22;46702;48.370;10.794;2022-09-13T13:14:02;25.00;66.20
60868;DHT22;46702;48.370;10.794;2022-09-13T13:16:39;24.90;61.40
60868;DHT22;46702;48.370;10.794;2022-09-13T13:21:54;25.30;60.60
60868;DHT22;46702;48.370;10.794;2022-09-13T13:26:47;25.50;62.00
60868;DHT22;46702;48.370;10.794;2022-09-13T13:29:28;25.50;54.30
60868;DHT22;46702;48.370;10.794;2022-09-13T13:39:45;25.50;58.50
60868;DHT22;46702;48.370;10.794;2022-09-13T13:42:27;25.60;58.90
60868;DHT22;46702;48.370;10.794;2022-09-13T13:45:14;25.60;54.60
60868;DHT22;46702;48.370;10.794;2022-09-13T13:47:52;25.70;58.50
60868;DHT22;46702;48.370;10.794;2022-09-13T13:50:21;25.80;58.30
60868;DHT22;46702;48.370;10.794;2022-09-13T13:56:05;25.90;58.40
60868;DHT22;46702;48.370;10.794;2022-09-13T13:58:30;25.90;56.50
60868;DHT22;46702;48.370;10.794;2022-09-13T14:01:00;25.90;57.30
60868;DHT22;46702;48.370;10.794;2022-09-13T14:03:55;25.70;55.40
60868;DHT22;46702;48.370;10.794;2022-09-13T14:06:29;25.90;58.80
60868;DHT22;46702;48.370;10.794;2022-09-13T14:09:23;25.80;58.40
60868;DHT22;46702;48.370;10.794;2022-09-13T14:20:32;25.10;59.40
60868;DHT22;46702;48.370;10.794;2022-09-13T14:23:16;25.10;57.80
60868;DHT22;46702;48.370;10.794;2022-09-13T14:25:43;25.10;65.50
60868;DHT22;46702;48.370;10.794;2022-09-13T14:28:13;25.10;59.30
60868;DHT22;46702;48.370;10.794;2022-09-13T14:30:40;25.20;62.50
60868;DHT22;46702;48.370;10.794;2022-09-13T14:33:15;25.30;63.00
60868;DHT22;46702;48.370;10.794;2022-09-13T14:35:43;25.40;61.00
60868;DHT22;46702;48.370;10.794;2022-09-13T14:38:26;25.40;60.20
60868;DHT22;46702;48.370;10.794;2022-09-13T14:40:59;25.50;64.90
60868;DHT22;46702;48.370;10.794;2022-09-13T14:43:27;25.30;65.80
60868;DHT22;46702;48.370;10.794;2022-09-13T14:48:35;25.10;69.00
60868;DHT22;46702;48.370;10.794;2022-09-13T14:57:37;25.20;71.50
60868;DHT22;46702;48.370;10.794;2022-09-13T15:02:48;25.20;71.50
60868;DHT22;46702;48.370;10.794;2022-09-13T15:05:16;25.00;69.60
60868;DHT22;46702;48.370;10.794;2022-09-13T15:07:42;24.90;68.20
60868;DHT22;46702;48.370;10.794;2022-09-13T15:15:23;25.00;70.20
60868;DHT22;46702;48.370;10.794;2022-09-13T15:18:05;25.10;69.80
60868;DHT22;46702;48.370;10.794;2022-09-13T15:20:58;25.10;68.60
60868;DHT22;46702;48.370;10.794;2022-09-13T15:23:27;25.00;70.40
60868;DHT22;46702;48.370;10.794;2022-09-13T15:26:05;24.90;77.30
60868;DHT22;46702;48.370;10.794;2022-09-13T15:28:58;24.90;78.90
60868;DHT22;46702;48.370;10.794;2022-09-13T15:31:33;25.00;83.90
60868;DHT22;46702;48.370;10.794;2022-09-13T15:34:23;24.90;83.80
60868;DHT22;46702;48.370;10.794;2022-09-13T15:37:13;24.80;84.70
60868;DHT22;46702;48.370;10.794;2022-09-13T15:39:50;24.70;86.40
60868;DHT22;46702;48.370;10.794;2022-09-13T15:42:25;24.60;93.40
60868;DHT22;46702;48.370;10.794;2022-09-13T15:44:51;24.50;92.60
60868;DHT22;46702;48.370;10.794;2022-09-13T15:47:17;24.50;97.30
60868;DHT22;46702;48.370;10.794;2022-09-13T15:49:49;24.40;95.40
60868;DHT22;46702;48.370;10.794;2022-09-13T15:52:15;24.50;92.90
60868;DHT22;46702;48.370;10.794;2022-09-13T15:54:42;24.50;95.90
60868;DHT22;46702;48.370;10.794;2022-09-13T15:57:20;24.50;98.60
60868;DHT22;46702;48.370;10.794;2022-09-13T15:59:46;24.50;97.20
60868;DHT22;46702;48.370;10.794;2022-09-13T16:02:21;24.40;95.70
60868;DHT22;46702;48.370;10.794;2022-09-13T16:04:47;24.30;93.80
60868;DHT22;46702;48.370;10.794;2022-09-13T16:07:14;24.30;92.30
60868;DHT22;46702;48.370;10.794;2022-09-13T16:09:40;24.30;91.70
60868;DHT22;46702;48.370;10.794;2022-09-13T16:12:07;24.30;91.20
60868;DHT22;46702;48.370;10.794;2022-09-13T16:14:32;24.30;91.60
60868;DHT22;46702;48.370;10.794;2022-09-13T16:17:03;24.20;91.80
60868;DHT22;46702;48.370;10.794;2022-09-13T16:19:32;24.20;93.90
60868;DHT22;46702;48.370;10.794;2022-09-13T16:21:58;24.20;95.10
60868;DHT22;46702;48.370;10.794;2022-09-13T16:24:24;24.10;96.40
60868;DHT22;46702;48.370;10.794;2022-09-13T16:26:50;24.10;96.70
60868;DHT22;46702;48.370;10.794;2022-09-13T16:29:15;24.00;96.50
60868;DHT22;46702;48.370;10.794;2022-09-13T16:31:41;24.00;95.80
60868;DHT22;46702;48.370;10.794;2022-09-13T16:34:07;23.90;93.70
60868;DHT22;46702;48.370;10.794;2022-09-13T16:36:33;23.80;93.80
60868;DHT22;46702;48.370;10.794;2022-09-13T16:38:59;23.80;95.00
60868;DHT22;46702;48.370;10.794;2022-09-13T16:41:25;23.70;94.70
60868;DHT22;46702;48.370;10.794;2022-09-13T16:43:52;23.70;95.20
60868;DHT22;46702;48.370;10.794;2022-09-13T16:46:20;23.60;96.20
60868;DHT22;46702;48.370;10.794;2022-09-13T16:48:52;23.50;96.80
60868;DHT22;46702;48.370;10.794;2022-09-13T16:51:18;23.40;97.10
60868;DHT22;46702;48.370;10.794;2022-09-13T16:53:44;23.30;97.20
60868;DHT22;46702;48.370;10.794;2022-09-13T16:56:15;23.30;97.60
60868;DHT22;46702;48.370;10.794;2022-09-13T16:58:43;23.20;97.90
60868;DHT22;46702;48.370;10.794;2022-09-13T17:01:11;23.20;97.80
60868;DHT22;46702;48.370;10.794;2022-09-13T17:03:38;23.10;98.30
60868;DHT22;46702;48.370;10.794;2022-09-13T17:06:06;23.10;98.60
60868;DHT22;46702;48.370;10.794;2022-09-13T17:08:33;23.10;98.70
60868;DHT22;46702;48.370;10.794;2022-09-13T17:11:00;23.00;98.30
60868;DHT22;46702;48.370;10.794;2022-09-13T17:13:29;23.00;98.10
60868;DHT22;46702;48.370;10.794;2022-09-13T17:15:54;22.90;98.20
60868;DHT22;46702;48.370;10.794;2022-09-13T17:18:22;22.90;98.30
60868;DHT22;46702;48.370;10.794;2022-09-13T17:20:51;22.90;98.90
60868;DHT22;46702;48.370;10.794;2022-09-13T17:23:17;22.80;98.80
60868;DHT22;46702;48.370;10.794;2022-09-13T17:25:45;22.70;99.00
60868;DHT22;46702;48.370;10.794;2022-09-13T17:28:12;22.60;98.90
60868;DHT22;46702;48.370;10.794;2022-09-13T17:30:39;22.60;99.10
60868;DHT22;46702;48.370;10.794;2022-09-13T17:33:05;22.50;99.10
60868;DHT22;46702;48.370;10.794;2022-09-13T17:35:31;22.50;99.60
60868;DHT22;46702;48.370;10.794;2022-09-13T17:38:00;22.40;99.70
60868;DHT22;46702;48.370;10.794;2022-09-13T17:40:28;22.30;99.90
60868;DHT22;46702;48.370;10.794;2022-09-13T17:42:54;21.90;99.90
60868;DHT22;46702;48.370;10.794;2022-09-13T17:45:20;21.60;99.90
60868;DHT22;46702;48.370;10.794;2022-09-13T17:47:46;21.50;99.90
60868;DHT22;46702;48.370;10.794;2022-09-13T17:50:11;21.50;99.90
60868;DHT22;46702;48.370;10.794;2022-09-13T17:52:38;21.40;99.90
60868;DHT22;46702;48.370;10.794;2022-09-13T17:55:04;21.30;99.90
60868;DHT22;46702;48.370;10.794;2022-09-13T17:57:31;21.20;99.90
60868;DHT22;46702;48.370;10.794;2022-09-13T17:59:57;21.20;99.90
60868;DHT22;46702;48.370;10.794;2022-09-13T18:02:23;21.30;99.90
60868;DHT22;46702;48.370;10.794;2022-09-13T18:04:50;21.30;99.90
60868;DHT22;46702;48.370;10.794;2022-09-13T18:07:19;21.20;99.90
60868;DHT22;46702;48.370;10.794;2022-09-13T18:09:47;21.20;99.90
60868;DHT22;46702;48.370;10.794;2022-09-13T18:12:13;21.20;99.90
60868;DHT22;46702;48.370;10.794;2022-09-13T18:14:39;21.10;99.90
60868;DHT22;46702;48.370;10.794;2022-09-13T18:17:05;21.10;99.90
60868;DHT22;46702;48.370;10.794;2022-09-13T18:19:38;20.90;99.90
60868;DHT22;46702;48.370;10.794;2022-09-13T18:22:05;20.80;99.90